Time;durP1;ratioP1;P1;durP2;ratioP2;P2;SDS_P1;SDS_P2;PMS_P1;PMS_P2;Temp;Humidity;BMP_temperature;BMP_pressure;BME280_temperature;BME280_humidity;BME280_pressure;Samples;Min_cycle;Max_cycle;Signal;HPM_P1;HPM_P2
2021/12/26 00:01:07;;;;;;;6.35;1.80;;;;;;;;;;5113345;27;20065;-78
2021/12/26 00:03:35;;;;;;;9.15;2.08;;;;;;;;;;5113251;28;20036;-76
2021/12/26 00:06:05;;;;;;;6.55;2.20;;;;;;;;;;5095210;28;20035;-77
2021/12/26 00:08:32;;;;;;;8.95;2.10;;;;;;;;;;5112827;28;20422;-76
2021/12/26 00:10:58;;;;;;;8.13;1.90;;;;;;;;;;5126160;27;20172;-77
2021/12/26 00:13:24;;;;;;;8.15;1.80;;;;;;;;;;5115193;27;20043;-77
2021/12/26 00:15:50;;;;;;;6.32;1.85;;;;;;;;;;5102607;28;20050;-78
2021/12/26 00:18:17;;;;;;;6.10;1.90;;;;;;;;;;5122288;27;20061;-77
2021/12/26 00:20:45;;;;;;;5.50;1.73;;;;;;;;;;5120416;27;20126;-77
2021/12/26 00:23:11;;;;;;;7.07;1.65;;;;;;;;;;5099356;28;20087;-77
2021/12/26 00:25:38;;;;;;;8.25;1.65;;;;;;;;;;5112772;28;20514;-77
2021/12/26 00:28:04;;;;;;;6.93;1.58;;;;;;;;;;5101382;28;20057;-77
2021/12/26 00:30:31;;;;;;;7.32;2.42;;;;;;;;;;5094975;28;20127;-76
2021/12/26 00:32:57;;;;;;;5.93;1.95;;;;;;;;;;5119126;28;20040;-77
2021/12/26 00:35:23;;;;;;;7.15;2.30;;;;;;;;;;5112800;28;20048;-77
2021/12/26 00:37:50;;;;;;;6.07;2.30;;;;;;;;;;5113042;28;20489;-77
2021/12/26 00:40:18;;;;;;;5.32;1.60;;;;;;;;;;5115523;28;20039;-77
2021/12/26 00:42:44;;;;;;;6.25;2.10;;;;;;;;;;5135807;27;20043;-77
2021/12/26 00:45:11;;;;;;;7.97;2.45;;;;;;;;;;5137454;27;20476;-78
2021/12/26 00:47:37;;;;;;;6.70;2.10;;;;;;;;;;5129860;27;20054;-77
2021/12/26 00:50:05;;;;;;;6.55;1.65;;;;;;;;;;5137430;27;20082;-77
2021/12/26 00:52:31;;;;;;;6.97;2.33;;;;;;;;;;5100466;28;20039;-76
2021/12/26 00:54:57;;;;;;;7.03;1.92;;;;;;;;;;5099061;28;20044;-78
2021/12/26 00:57:23;;;;;;;15.07;3.08;;;;;;;;;;5122657;27;20039;-77
2021/12/26 00:59:49;;;;;;;5.82;1.85;;;;;;;;;;5098838;28;20380;-77
2021/12/26 01:02:15;;;;;;;6.90;1.95;;;;;;;;;;5116570;28;20073;-77
2021/12/26 01:04:41;;;;;;;7.78;2.17;;;;;;;;;;5098839;27;20388;-77
2021/12/26 01:07:16;;;;;;;7.28;2.08;;;;;;;;;;5116601;28;20358;-78
2021/12/26 01:09:46;;;;;;;9.40;2.17;;;;;;;;;;5099123;27;20038;-78
2021/12/26 01:12:15;;;;;;;5.82;1.80;;;;;;;;;;5116501;28;20047;-77
2021/12/26 01:14:48;;;;;;;10.50;1.92;;;;;;;;;;5127134;27;20047;-77
2021/12/26 01:17:18;;;;;;;6.82;1.63;;;;;;;;;;5118547;27;20121;-77
2021/12/26 01:19:48;;;;;;;8.18;2.08;;;;;;;;;;5125895;27;20040;-78
2021/12/26 01:22:15;;;;;;;8.40;1.90;;;;;;;;;;5116958;27;20044;-76
2021/12/26 01:24:42;;;;;;;6.28;1.73;;;;;;;;;;5126984;27;20109;-78
2021/12/26 01:27:08;;;;;;;7.60;1.90;;;;;;;;;;5119829;27;20050;-78
2021/12/26 01:29:36;;;;;;;7.80;1.70;;;;;;;;;;5118030;27;20556;-78
2021/12/26 01:32:02;;;;;;;5.40;1.92;;;;;;;;;;5116549;27;20488;-77
2021/12/26 01:34:28;;;;;;;8.48;2.40;;;;;;;;;;5116276;28;20040;-76
2021/12/26 01:36:55;;;;;;;8.13;1.88;;;;;;;;;;5116283;28;20082;-78
2021/12/26 01:39:22;;;;;;;6.77;1.80;;;;;;;;;;5136102;27;20039;-76
2021/12/26 01:41:49;;;;;;;5.30;1.50;;;;;;;;;;5130257;27;20047;-75
2021/12/26 01:44:16;;;;;;;6.45;1.63;;;;;;;;;;5134594;27;20088;-77
2021/12/26 01:46:43;;;;;;;7.47;2.28;;;;;;;;;;5136390;27;20039;-77
2021/12/26 01:49:11;;;;;;;8.50;2.08;;;;;;;;;;5130285;27;20031;-78
2021/12/26 01:51:37;;;;;;;7.30;1.83;;;;;;;;;;5115520;28;20035;-77
2021/12/26 01:54:08;;;;;;;6.07;1.77;;;;;;;;;;5115987;27;20032;-77
2021/12/26 01:56:35;;;;;;;7.03;1.90;;;;;;;;;;5116669;27;20075;-76
2021/12/26 01:59:01;;;;;;;8.73;1.90;;;;;;;;;;5127053;27;20043;-76
2021/12/26 02:01:27;;;;;;;5.65;1.77;;;;;;;;;;5136000;27;20049;-78
2021/12/26 02:03:54;;;;;;;5.97;1.77;;;;;;;;;;5136109;27;20035;-77
2021/12/26 02:06:21;;;;;;;5.15;1.55;;;;;;;;;;5117914;27;20043;-76
2021/12/26 02:08:47;;;;;;;7.38;1.90;;;;;;;;;;5097147;28;20051;-76
2021/12/26 02:11:13;;;;;;;7.57;1.83;;;;;;;;;;5106512;27;20043;-77
2021/12/26 02:13:40;;;;;;;7.10;1.40;;;;;;;;;;5135837;27;20183;-76
2021/12/26 02:16:07;;;;;;;5.53;1.58;;;;;;;;;;5135718;27;20081;-77
2021/12/26 02:18:33;;;;;;;7.20;2.03;;;;;;;;;;5117170;27;20053;-79
2021/12/26 02:24:06;;;;;;;5.00;1.80;;;;;;;;;;5134503;27;20157;-76
2021/12/26 02:29:17;;;;;;;6.70;1.90;;;;;;;;;;5114922;28;20043;-77
2021/12/26 02:31:43;;;;;;;5.38;1.90;;;;;;;;;;5096440;28;20047;-77
2021/12/26 02:34:09;;;;;;;4.97;1.77;;;;;;;;;;5114824;28;20040;-77
2021/12/26 02:36:35;;;;;;;6.43;1.90;;;;;;;;;;5115192;27;20103;-78
2021/12/26 02:39:01;;;;;;;5.60;2.08;;;;;;;;;;5115136;27;20036;-79
2021/12/26 02:41:27;;;;;;;4.60;1.60;;;;;;;;;;5126752;27;20418;-77
2021/12/26 02:43:54;;;;;;;5.07;1.83;;;;;;;;;;5125796;27;20118;-77
2021/12/26 02:46:20;;;;;;;5.63;1.77;;;;;;;;;;5114970;27;20424;-78
2021/12/26 02:48:46;;;;;;;4.83;1.70;;;;;;;;;;5096582;28;20043;-79
2021/12/26 02:51:12;;;;;;;5.72;2.22;;;;;;;;;;5120319;27;20468;-78
2021/12/26 02:53:38;;;;;;;5.40;1.75;;;;;;;;;;5118689;27;20040;-77
2021/12/26 02:56:05;;;;;;;6.17;2.10;;;;;;;;;;5114478;28;20048;-77
2021/12/26 02:58:31;;;;;;;6.67;1.70;;;;;;;;;;5118272;27;20062;-78
2021/12/26 03:01:09;;;;;;;5.23;1.50;;;;;;;;;;5131899;27;20118;-76
2021/12/26 03:03:35;;;;;;;5.30;1.60;;;;;;;;;;5115231;27;20040;-78
2021/12/26 03:06:05;;;;;;;4.80;1.60;;;;;;;;;;5132977;27;20503;-78
2021/12/26 03:08:31;;;;;;;6.97;1.80;;;;;;;;;;5134936;27;20043;-79
2021/12/26 03:10:59;;;;;;;5.13;1.63;;;;;;;;;;5115673;27;20421;-78
2021/12/26 03:13:25;;;;;;;6.23;1.80;;;;;;;;;;5096001;28;20082;-77
2021/12/26 03:15:51;;;;;;;5.77;1.97;;;;;;;;;;5121350;27;20031;-78
2021/12/26 03:18:18;;;;;;;5.53;1.87;;;;;;;;;;5134603;27;20043;-77
2021/12/26 03:20:46;;;;;;;5.70;1.90;;;;;;;;;;5127804;27;20078;-77
2021/12/26 03:23:12;;;;;;;5.07;1.77;;;;;;;;;;5114037;28;20408;-77
2021/12/26 03:25:39;;;;;;;7.13;2.00;;;;;;;;;;5114031;27;20043;-78
2021/12/26 03:28:06;;;;;;;6.05;1.63;;;;;;;;;;5114049;27;20043;-79
2021/12/26 03:30:32;;;;;;;6.07;1.67;;;;;;;;;;5113775;28;20074;-78
2021/12/26 03:33:00;;;;;;;5.13;1.70;;;;;;;;;;5120507;27;20392;-78
2021/12/26 03:35:27;;;;;;;6.37;1.67;;;;;;;;;;5116005;27;20062;-77
2021/12/26 03:37:53;;;;;;;5.50;1.80;;;;;;;;;;5128049;27;20100;-78
2021/12/26 03:40:19;;;;;;;9.43;2.08;;;;;;;;;;5113687;28;20043;-76
2021/12/26 03:42:46;;;;;;;5.07;1.85;;;;;;;;;;5099400;27;20039;-77
2021/12/26 03:45:12;;;;;;;7.23;2.00;;;;;;;;;;5134159;27;20042;-79
2021/12/26 03:47:39;;;;;;;5.53;1.97;;;;;;;;;;5132453;27;20476;-77
2021/12/26 03:50:06;;;;;;;5.80;1.80;;;;;;;;;;5114184;27;20039;-78
2021/12/26 03:52:32;;;;;;;7.30;2.40;;;;;;;;;;5113590;28;20357;-76
2021/12/26 03:54:58;;;;;;;6.47;1.92;;;;;;;;;;5095688;28;20043;-76
2021/12/26 03:57:24;;;;;;;7.13;2.00;;;;;;;;;;5095910;27;20051;-77
2021/12/26 03:59:50;;;;;;;5.30;1.97;;;;;;;;;;5115938;27;20039;-78
2021/12/26 04:02:16;;;;;;;8.10;1.97;;;;;;;;;;5124468;27;20046;-79
2021/12/26 04:04:43;;;;;;;7.97;2.05;;;;;;;;;;5095766;28;20074;-76
2021/12/26 04:07:09;;;;;;;7.13;2.00;;;;;;;;;;5113176;28;20392;-77
2021/12/26 04:09:36;;;;;;;4.78;1.95;;;;;;;;;;5113507;27;20378;-77
2021/12/26 04:12:02;;;;;;;6.50;1.90;;;;;;;;;;5112899;28;20074;-77
2021/12/26 04:14:28;;;;;;;5.88;2.13;;;;;;;;;;5114503;27;20065;-77
2021/12/26 04:16:54;;;;;;;5.57;1.63;;;;;;;;;;5133707;27;20479;-77
2021/12/26 04:19:20;;;;;;;6.57;2.03;;;;;;;;;;5115435;28;20081;-78
2021/12/26 04:21:46;;;;;;;7.10;2.40;;;;;;;;;;5130615;27;20034;-76
2021/12/26 04:24:13;;;;;;;7.05;2.20;;;;;;;;;;5130601;27;20133;-78
2021/12/26 04:26:42;;;;;;;6.50;2.10;;;;;;;;;;5112666;28;20051;-76
2021/12/26 04:29:08;;;;;;;7.10;2.03;;;;;;;;;;5113466;28;20047;-77
2021/12/26 04:31:34;;;;;;;6.77;1.90;;;;;;;;;;5095530;28;20214;-77
2021/12/26 04:34:00;;;;;;;5.83;2.03;;;;;;;;;;5117181;28;20396;-77
2021/12/26 04:36:26;;;;;;;6.13;1.80;;;;;;;;;;5133077;28;20146;-78
2021/12/26 04:38:52;;;;;;;6.43;2.53;;;;;;;;;;5133443;28;20035;-79
2021/12/26 04:41:19;;;;;;;7.37;1.93;;;;;;;;;;5133302;28;20086;-77
2021/12/26 04:43:45;;;;;;;5.97;2.13;;;;;;;;;;5112860;28;20040;-76
2021/12/26 04:46:11;;;;;;;8.07;2.37;;;;;;;;;;5094938;28;20048;-77
2021/12/26 04:48:39;;;;;;;9.33;2.90;;;;;;;;;;5112989;28;20057;-79
2021/12/26 04:51:06;;;;;;;8.48;2.25;;;;;;;;;;5096053;28;20035;-78
2021/12/26 04:53:33;;;;;;;5.47;1.80;;;;;;;;;;5094615;28;20051;-76
2021/12/26 04:55:59;;;;;;;5.37;2.10;;;;;;;;;;5115702;28;20078;-78
2021/12/26 04:58:25;;;;;;;6.07;2.43;;;;;;;;;;5099649;28;20050;-76
2021/12/26 05:00:51;;;;;;;5.77;1.90;;;;;;;;;;5112675;28;20043;-78
2021/12/26 05:03:17;;;;;;;5.00;1.90;;;;;;;;;;5112325;28;20392;-76
2021/12/26 05:05:44;;;;;;;5.97;2.10;;;;;;;;;;5112800;28;20049;-77
2021/12/26 05:08:11;;;;;;;7.53;2.17;;;;;;;;;;5112683;28;20051;-77
2021/12/26 05:10:37;;;;;;;7.93;2.20;;;;;;;;;;5114206;28;20047;-75
2021/12/26 05:13:04;;;;;;;6.50;1.87;;;;;;;;;;5094612;28;20122;-78
2021/12/26 05:15:30;;;;;;;5.97;2.40;;;;;;;;;;5112825;28;20400;-78
2021/12/26 05:17:56;;;;;;;5.30;1.80;;;;;;;;;;5112398;28;20169;-77
2021/12/26 05:20:23;;;;;;;5.40;2.20;;;;;;;;;;5096486;28;20051;-77
2021/12/26 05:22:49;;;;;;;5.67;2.17;;;;;;;;;;5131065;28;20039;-76
2021/12/26 05:25:16;;;;;;;6.80;2.20;;;;;;;;;;5103034;28;21018;-76
2021/12/26 05:27:42;;;;;;;5.32;2.25;;;;;;;;;;5094504;28;20401;-77
2021/12/26 05:30:11;;;;;;;5.20;1.87;;;;;;;;;;5095900;28;20044;-76
2021/12/26 05:32:37;;;;;;;6.00;2.40;;;;;;;;;;5095785;28;20504;-76
2021/12/26 05:35:04;;;;;;;7.10;2.22;;;;;;;;;;5095645;28;20040;-78
2021/12/26 05:37:30;;;;;;;4.60;1.77;;;;;;;;;;5106870;28;20127;-76
2021/12/26 05:39:57;;;;;;;6.10;2.40;;;;;;;;;;5115029;28;20092;-79
2021/12/26 05:42:23;;;;;;;6.23;2.40;;;;;;;;;;5114303;28;20392;-77
2021/12/26 05:44:50;;;;;;;6.50;2.63;;;;;;;;;;5116043;28;20126;-78
2021/12/26 05:47:16;;;;;;;7.20;2.50;;;;;;;;;;5099661;28;20064;-78
2021/12/26 05:49:42;;;;;;;6.87;2.30;;;;;;;;;;5095439;28;20093;-76
2021/12/26 05:52:08;;;;;;;7.47;2.60;;;;;;;;;;5095304;28;20043;-76
2021/12/26 05:54:35;;;;;;;6.77;2.60;;;;;;;;;;5101469;28;20040;-77
2021/12/26 05:57:01;;;;;;;6.15;2.40;;;;;;;;;;5114649;28;20080;-76
2021/12/26 05:59:27;;;;;;;7.50;2.77;;;;;;;;;;5093770;28;20054;-78
2021/12/26 06:01:53;;;;;;;6.40;2.60;;;;;;;;;;5093919;28;20036;-79
2021/12/26 06:04:19;;;;;;;5.43;2.40;;;;;;;;;;5095946;28;20048;-78
2021/12/26 06:06:46;;;;;;;8.10;2.83;;;;;;;;;;5114335;28;20271;-77
2021/12/26 06:09:12;;;;;;;10.37;2.93;;;;;;;;;;5115565;28;20039;-77
2021/12/26 06:11:39;;;;;;;6.43;2.47;;;;;;;;;;5095481;28;20047;-76
2021/12/26 06:14:05;;;;;;;6.80;2.67;;;;;;;;;;5095070;28;20055;-77
2021/12/26 06:16:31;;;;;;;7.87;3.23;;;;;;;;;;5110845;28;20036;-77
2021/12/26 06:18:58;;;;;;;8.23;2.70;;;;;;;;;;5115189;28;20039;-77
2021/12/26 06:21:24;;;;;;;7.50;3.40;;;;;;;;;;5099276;28;20036;-79
2021/12/26 06:23:50;;;;;;;7.33;2.70;;;;;;;;;;5095193;28;20108;-78
2021/12/26 06:26:17;;;;;;;7.93;3.50;;;;;;;;;;5100830;28;20058;-76
2021/12/26 06:28:43;;;;;;;8.83;3.27;;;;;;;;;;5117065;27;20431;-78
2021/12/26 06:31:09;;;;;;;8.93;3.23;;;;;;;;;;5124643;27;20127;-77
2021/12/26 06:33:35;;;;;;;8.10;3.17;;;;;;;;;;5097188;28;20088;-78
2021/12/26 06:36:01;;;;;;;6.57;2.90;;;;;;;;;;5115076;27;20123;-79
2021/12/26 06:38:27;;;;;;;6.87;3.17;;;;;;;;;;5113592;28;20039;-78
2021/12/26 06:40:53;;;;;;;7.47;3.53;;;;;;;;;;5096959;28;20043;-78
2021/12/26 06:43:20;;;;;;;9.20;3.50;;;;;;;;;;5121661;27;20068;-78
2021/12/26 06:45:46;;;;;;;8.95;3.85;;;;;;;;;;5135189;27;20078;-78
2021/12/26 06:48:12;;;;;;;8.13;3.55;;;;;;;;;;5117144;27;20035;-78
2021/12/26 06:50:38;;;;;;;9.70;3.90;;;;;;;;;;5119071;27;20118;-79
2021/12/26 06:53:05;;;;;;;9.60;3.67;;;;;;;;;;5135235;27;20043;-77
2021/12/26 06:55:31;;;;;;;10.37;3.90;;;;;;;;;;5099403;28;20054;-78
2021/12/26 06:57:57;;;;;;;8.90;4.43;;;;;;;;;;5096389;28;20075;-77
2021/12/26 07:00:23;;;;;;;10.97;4.30;;;;;;;;;;5114777;28;20085;-77
2021/12/26 07:02:49;;;;;;;11.53;4.20;;;;;;;;;;5117203;27;20032;-78
2021/12/26 07:05:16;;;;;;;9.70;4.33;;;;;;;;;;5114399;27;20039;-77
2021/12/26 07:07:42;;;;;;;9.43;4.17;;;;;;;;;;5114526;27;20086;-76
2021/12/26 07:10:09;;;;;;;11.47;4.33;;;;;;;;;;5114400;28;20039;-77
2021/12/26 07:12:35;;;;;;;7.27;3.30;;;;;;;;;;5125779;27;20070;-76
2021/12/26 07:15:01;;;;;;;9.47;3.73;;;;;;;;;;5132279;27;20087;-76
2021/12/26 07:17:27;;;;;;;11.83;4.07;;;;;;;;;;5113904;28;20040;-77
2021/12/26 07:19:54;;;;;;;10.00;3.87;;;;;;;;;;5114657;28;20123;-78
2021/12/26 07:22:20;;;;;;;9.40;3.70;;;;;;;;;;5114178;27;20051;-78
2021/12/26 07:24:47;;;;;;;11.03;4.13;;;;;;;;;;5114114;28;20050;-78
2021/12/26 07:27:14;;;;;;;10.17;4.00;;;;;;;;;;5113553;28;20055;-77
2021/12/26 07:29:40;;;;;;;9.70;3.90;;;;;;;;;;5095842;28;20051;-79
2021/12/26 07:32:07;;;;;;;10.53;4.20;;;;;;;;;;5095462;28;20051;-79
2021/12/26 07:34:34;;;;;;;9.47;4.27;;;;;;;;;;5114195;28;20057;-77
2021/12/26 07:37:00;;;;;;;9.80;4.37;;;;;;;;;;5114007;27;20081;-77
2021/12/26 07:39:27;;;;;;;19.57;5.13;;;;;;;;;;5113486;28;20045;-77
2021/12/26 07:41:53;;;;;;;9.20;4.03;;;;;;;;;;5117969;27;20043;-78
2021/12/26 07:44:19;;;;;;;9.93;4.20;;;;;;;;;;5133861;27;20050;-78
2021/12/26 07:46:45;;;;;;;10.43;4.10;;;;;;;;;;5115132;27;20043;-77
2021/12/26 07:49:12;;;;;;;10.03;4.07;;;;;;;;;;5112970;28;20043;-76
2021/12/26 07:51:38;;;;;;;11.13;4.45;;;;;;;;;;5113181;28;20073;-79
2021/12/26 07:54:04;;;;;;;9.30;4.10;;;;;;;;;;5113238;28;20575;-77
2021/12/26 07:56:31;;;;;;;9.87;4.90;;;;;;;;;;5095175;28;20044;-79
2021/12/26 07:58:57;;;;;;;8.43;4.33;;;;;;;;;;5113214;28;20047;-77
2021/12/26 08:01:23;;;;;;;9.68;3.78;;;;;;;;;;5113017;28;20040;-78
2021/12/26 08:03:50;;;;;;;12.97;4.20;;;;;;;;;;5095464;28;20043;-77
2021/12/26 08:06:16;;;;;;;10.30;4.83;;;;;;;;;;5094869;28;20064;-78
2021/12/26 08:08:43;;;;;;;40.43;16.50;;;;;;;;;;5095254;28;20043;-79
2021/12/26 08:11:09;;;;;;;24.33;8.97;;;;;;;;;;5113124;28;20046;-78
2021/12/26 08:13:35;;;;;;;24.03;8.73;;;;;;;;;;5094995;28;20123;-78
2021/12/26 08:16:01;;;;;;;49.07;17.07;;;;;;;;;;5112932;28;20122;-78
2021/12/26 08:18:27;;;;;;;157.40;43.80;;;;;;;;;;5095145;28;20049;-78
2021/12/26 08:20:53;;;;;;;109.82;32.80;;;;;;;;;;5095049;28;20469;-78
2021/12/26 08:23:20;;;;;;;46.63;16.10;;;;;;;;;;5112876;28;20527;-78
2021/12/26 08:25:46;;;;;;;33.27;11.80;;;;;;;;;;5113010;28;20046;-78
2021/12/26 08:28:14;;;;;;;10.57;4.87;;;;;;;;;;5112582;28;20054;-78
2021/12/26 08:30:40;;;;;;;10.93;5.40;;;;;;;;;;5112943;28;20040;-77
2021/12/26 08:33:07;;;;;;;12.95;5.05;;;;;;;;;;5112962;28;20083;-77
2021/12/26 08:35:35;;;;;;;10.10;4.47;;;;;;;;;;5094759;28;20054;-78
2021/12/26 08:38:01;;;;;;;10.25;4.93;;;;;;;;;;5094517;28;20044;-77
2021/12/26 08:40:27;;;;;;;11.02;5.10;;;;;;;;;;5112760;28;20047;-78
2021/12/26 08:42:54;;;;;;;8.65;3.92;;;;;;;;;;5112799;28;20499;-78
2021/12/26 08:45:20;;;;;;;11.00;4.20;;;;;;;;;;5112809;28;20606;-78
2021/12/26 08:47:47;;;;;;;10.27;4.18;;;;;;;;;;5112942;28;20044;-78
2021/12/26 08:50:14;;;;;;;9.98;3.83;;;;;;;;;;5112779;28;20050;-79
2021/12/26 08:52:41;;;;;;;8.68;4.40;;;;;;;;;;5094890;28;20047;-78
2021/12/26 08:55:08;;;;;;;8.63;4.13;;;;;;;;;;5112789;28;20039;-79
2021/12/26 08:57:34;;;;;;;13.45;4.40;;;;;;;;;;5094387;28;20134;-78
2021/12/26 09:00:01;;;;;;;9.25;4.55;;;;;;;;;;5113163;28;20130;-78
2021/12/26 09:02:27;;;;;;;9.05;4.60;;;;;;;;;;5116888;28;20055;-77
2021/12/26 09:04:53;;;;;;;8.57;4.05;;;;;;;;;;5098584;28;20035;-78
2021/12/26 09:07:19;;;;;;;10.73;4.22;;;;;;;;;;5098654;28;20040;-78
2021/12/26 09:09:48;;;;;;;9.45;3.80;;;;;;;;;;5116741;28;20035;-79
2021/12/26 09:12:15;;;;;;;8.85;3.90;;;;;;;;;;5098209;28;20050;-78
2021/12/26 09:14:41;;;;;;;10.02;4.80;;;;;;;;;;5116547;28;20114;-77
2021/12/26 09:17:08;;;;;;;9.05;3.50;;;;;;;;;;5097946;28;20070;-77
2021/12/26 09:19:35;;;;;;;8.07;3.92;;;;;;;;;;5116322;28;20123;-78
2021/12/26 09:22:05;;;;;;;11.15;4.35;;;;;;;;;;5116305;28;20046;-76
2021/12/26 09:24:31;;;;;;;8.18;4.10;;;;;;;;;;5114915;28;20047;-78
2021/12/26 09:26:57;;;;;;;9.50;4.40;;;;;;;;;;5115482;28;20407;-77
2021/12/26 09:29:24;;;;;;;8.27;4.18;;;;;;;;;;5116154;28;20124;-77
2021/12/26 09:31:51;;;;;;;8.07;3.92;;;;;;;;;;5116073;28;20047;-77
2021/12/26 09:34:17;;;;;;;7.45;4.00;;;;;;;;;;5116148;28;20078;-78
2021/12/26 09:36:44;;;;;;;7.35;3.70;;;;;;;;;;5115648;28;20036;-78
2021/12/26 09:39:11;;;;;;;8.27;3.55;;;;;;;;;;5115826;28;20054;-77
2021/12/26 09:41:39;;;;;;;8.68;3.70;;;;;;;;;;5116054;28;20039;-78
2021/12/26 09:44:05;;;;;;;11.07;3.85;;;;;;;;;;5115897;28;20044;-78
2021/12/26 09:46:33;;;;;;;12.57;4.18;;;;;;;;;;5115956;28;20047;-77
2021/12/26 09:48:59;;;;;;;7.47;3.15;;;;;;;;;;5115936;28;20039;-78
2021/12/26 09:51:26;;;;;;;9.05;4.20;;;;;;;;;;5115422;28;20046;-79
2021/12/26 09:53:52;;;;;;;7.75;3.70;;;;;;;;;;5115494;28;20044;-78
2021/12/26 09:56:18;;;;;;;7.30;3.45;;;;;;;;;;5115343;28;20039;-77
2021/12/26 09:58:57;;;;;;;8.50;3.88;;;;;;;;;;5097149;28;20043;-78
2021/12/26 10:01:27;;;;;;;9.38;4.03;;;;;;;;;;5097052;28;20411;-78
2021/12/26 10:03:54;;;;;;;7.82;4.22;;;;;;;;;;5115662;28;20128;-78
2021/12/26 10:06:20;;;;;;;8.82;4.05;;;;;;;;;;5115404;28;20049;-78
2021/12/26 10:08:58;;;;;;;9.15;4.30;;;;;;;;;;5115371;28;20126;-78
2021/12/26 10:11:30;;;;;;;9.20;4.15;;;;;;;;;;5097186;28;20493;-78
2021/12/26 10:13:58;;;;;;;10.23;4.18;;;;;;;;;;5097177;28;20039;-77
2021/12/26 10:16:26;;;;;;;8.90;4.03;;;;;;;;;;5097328;28;20179;-79
2021/12/26 10:18:53;;;;;;;8.25;4.35;;;;;;;;;;5096611;28;20077;-78
2021/12/26 10:21:22;;;;;;;9.70;3.85;;;;;;;;;;5115318;28;20100;-78
2021/12/26 10:23:48;;;;;;;8.77;4.15;;;;;;;;;;5115345;28;20045;-79
2021/12/26 10:26:19;;;;;;;7.72;4.35;;;;;;;;;;5114881;28;20039;-78
2021/12/26 10:29:03;;;;;;;7.15;3.70;;;;;;;;;;5097182;28;20114;-78
2021/12/26 10:31:29;;;;;;;9.07;3.88;;;;;;;;;;5114765;28;20040;-78
2021/12/26 10:33:55;;;;;;;8.90;4.07;;;;;;;;;;5096747;28;20048;-79
2021/12/26 10:36:21;;;;;;;8.73;3.95;;;;;;;;;;5063053;28;20071;-77
2021/12/26 10:39:08;;;;;;;9.80;4.80;;;;;;;;;;5114395;28;20075;-78
2021/12/26 10:41:36;;;;;;;7.63;4.00;;;;;;;;;;5114551;28;20043;-78
2021/12/26 10:44:02;;;;;;;8.70;4.28;;;;;;;;;;5096114;28;20039;-77
2021/12/26 10:46:28;;;;;;;8.15;4.18;;;;;;;;;;5114681;28;20089;-77
2021/12/26 10:48:55;;;;;;;10.00;4.10;;;;;;;;;;5114425;28;20048;-77
2021/12/26 10:51:50;;;;;;;9.93;3.92;;;;;;;;;;5096102;28;20039;-76
2021/12/26 10:54:17;;;;;;;10.48;4.03;;;;;;;;;;5074880;28;20043;-77
2021/12/26 10:57:01;;;;;;;8.32;3.90;;;;;;;;;;5096246;28;20044;-77
2021/12/26 10:59:27;;;;;;;9.23;4.38;;;;;;;;;;5114182;28;20036;-78
2021/12/26 11:01:56;;;;;;;25.92;11.55;;;;;;;;;;5113420;28;20044;-78
2021/12/26 11:04:22;;;;;;;6.88;3.10;;;;;;;;;;5078769;28;20043;-77
2021/12/26 11:06:59;;;;;;;9.07;5.22;;;;;;;;;;5096043;28;20043;-78
2021/12/26 11:09:25;;;;;;;8.45;4.35;;;;;;;;;;5096093;28;20047;-77
2021/12/26 11:11:58;;;;;;;8.32;4.07;;;;;;;;;;5096040;28;20039;-79
2021/12/26 11:14:24;;;;;;;9.57;4.15;;;;;;;;;;5095635;28;20047;-78
2021/12/26 11:16:51;;;;;;;8.57;4.22;;;;;;;;;;5113922;28;20047;-78
2021/12/26 11:19:17;;;;;;;8.07;5.03;;;;;;;;;;5113904;28;20066;-78
2021/12/26 11:21:43;;;;;;;8.50;4.40;;;;;;;;;;5095757;28;20453;-78
2021/12/26 11:24:09;;;;;;;7.75;4.03;;;;;;;;;;5113667;28;20051;-78
2021/12/26 11:26:36;;;;;;;8.95;4.50;;;;;;;;;;5113956;28;20142;-78
2021/12/26 11:29:02;;;;;;;17.98;8.50;;;;;;;;;;5095982;28;20047;-78
2021/12/26 11:31:30;;;;;;;7.65;3.55;;;;;;;;;;5113733;28;20035;-78
2021/12/26 11:34:01;;;;;;;9.00;3.90;;;;;;;;;;5114118;28;20048;-78
2021/12/26 11:36:29;;;;;;;11.88;4.30;;;;;;;;;;5095685;28;20126;-78
2021/12/26 11:38:57;;;;;;;8.77;3.67;;;;;;;;;;5113658;28;20095;-79
2021/12/26 11:41:31;;;;;;;7.35;3.80;;;;;;;;;;5113481;28;20160;-79
2021/12/26 11:44:16;;;;;;;7.72;3.90;;;;;;;;;;5113564;28;20039;-78
2021/12/26 11:47:01;;;;;;;10.80;4.78;;;;;;;;;;5079098;28;20042;-78
2021/12/26 11:49:44;;;;;;;9.25;4.72;;;;;;;;;;5113315;28;20047;-79
2021/12/26 11:52:25;;;;;;;8.15;4.20;;;;;;;;;;5092849;28;20083;-80
2021/12/26 11:55:10;;;;;;;8.02;4.32;;;;;;;;;;5111961;28;20152;-79
2021/12/26 11:57:39;;;;;;;10.55;5.00;;;;;;;;;;5112634;28;20087;-78
2021/12/26 12:00:06;;;;;;;9.35;5.18;;;;;;;;;;5112468;28;20044;-78
2021/12/26 12:02:46;;;;;;;8.68;4.65;;;;;;;;;;5094130;28;20044;-79
2021/12/26 12:05:14;;;;;;;11.50;4.82;;;;;;;;;;5112831;28;20050;-79
2021/12/26 12:07:44;;;;;;;8.75;4.30;;;;;;;;;;5112502;28;20040;-78
2021/12/26 12:10:29;;;;;;;9.50;4.03;;;;;;;;;;5112509;28;20047;-78
2021/12/26 12:12:55;;;;;;;8.73;4.15;;;;;;;;;;5112259;28;20123;-78
2021/12/26 12:15:40;;;;;;;9.68;4.63;;;;;;;;;;5112037;28;20043;-79
2021/12/26 12:18:13;;;;;;;9.73;4.32;;;;;;;;;;5112390;28;20039;-79
2021/12/26 12:20:39;;;;;;;9.43;4.50;;;;;;;;;;5094142;28;20078;-79
2021/12/26 12:23:09;;;;;;;10.73;4.63;;;;;;;;;;5111451;28;20067;-78
2021/12/26 12:25:41;;;;;;;10.10;4.90;;;;;;;;;;5076995;28;20095;-78
2021/12/26 12:28:07;;;;;;;8.40;4.90;;;;;;;;;;5093871;28;20048;-79
2021/12/26 12:30:35;;;;;;;9.77;4.45;;;;;;;;;;5112580;28;20044;-79
2021/12/26 12:33:21;;;;;;;9.57;4.53;;;;;;;;;;5112267;28;21032;-78
2021/12/26 12:35:50;;;;;;;9.52;4.50;;;;;;;;;;5093013;28;20156;-78
2021/12/26 12:38:28;;;;;;;21.40;12.52;;;;;;;;;;5094188;28;20046;-78
2021/12/26 12:40:55;;;;;;;8.88;5.00;;;;;;;;;;5094848;28;20062;-78
2021/12/26 12:43:23;;;;;;;10.93;4.93;;;;;;;;;;5112564;28;20420;-79
2021/12/26 12:45:56;;;;;;;8.45;4.63;;;;;;;;;;5112909;28;20044;-78
2021/12/26 12:48:28;;;;;;;12.00;6.22;;;;;;;;;;5094784;28;20044;-78
2021/12/26 12:50:55;;;;;;;9.13;5.28;;;;;;;;;;5112588;28;20039;-79
2021/12/26 12:53:40;;;;;;;9.88;4.40;;;;;;;;;;5095065;28;20122;-79
2021/12/26 12:56:07;;;;;;;10.70;5.60;;;;;;;;;;5112809;28;20112;-80
2021/12/26 12:58:36;;;;;;;8.95;5.47;;;;;;;;;;5094592;28;20046;-79
2021/12/26 13:01:05;;;;;;;9.45;6.00;;;;;;;;;;5112862;28;20044;-79
2021/12/26 13:03:34;;;;;;;11.05;5.45;;;;;;;;;;5112943;28;20051;-79
2021/12/26 13:06:06;;;;;;;13.20;6.05;;;;;;;;;;5113289;28;20047;-79
2021/12/26 13:08:33;;;;;;;8.55;4.82;;;;;;;;;;5113029;28;20051;-78
2021/12/26 13:11:01;;;;;;;9.60;5.25;;;;;;;;;;5112997;28;20140;-79
2021/12/26 13:13:28;;;;;;;9.73;5.07;;;;;;;;;;5095333;28;20067;-78
2021/12/26 13:16:02;;;;;;;11.75;5.93;;;;;;;;;;5113093;28;20043;-79
2021/12/26 13:18:30;;;;;;;10.48;5.10;;;;;;;;;;5113383;28;20047;-78
2021/12/26 13:21:01;;;;;;;8.63;5.13;;;;;;;;;;5113340;28;20071;-77
2021/12/26 13:23:27;;;;;;;9.73;5.18;;;;;;;;;;5113254;28;20075;-78
2021/12/26 13:25:53;;;;;;;9.77;5.50;;;;;;;;;;5095392;28;20093;-80
2021/12/26 13:28:22;;;;;;;10.65;5.55;;;;;;;;;;5113264;28;20396;-80
2021/12/26 13:30:52;;;;;;;9.50;5.53;;;;;;;;;;5113570;28;20047;-79
2021/12/26 13:33:20;;;;;;;9.25;5.53;;;;;;;;;;5095515;28;20571;-78
2021/12/26 13:35:46;;;;;;;9.55;5.78;;;;;;;;;;5112638;28;20504;-72
2021/12/26 13:38:13;;;;;;;15.57;9.50;;;;;;;;;;5094660;28;20083;-79
2021/12/26 13:40:44;;;;;;;17.33;9.13;;;;;;;;;;5094740;28;20090;-80
2021/12/26 13:43:11;;;;;;;11.75;7.75;;;;;;;;;;5112859;28;20137;-78
2021/12/26 13:45:38;;;;;;;9.80;5.75;;;;;;;;;;5112794;28;20492;-78
2021/12/26 13:48:05;;;;;;;10.32;5.63;;;;;;;;;;5115958;28;20074;-77
2021/12/26 13:50:31;;;;;;;11.40;5.60;;;;;;;;;;5116875;28;20071;-79
2021/12/26 13:53:03;;;;;;;9.93;5.43;;;;;;;;;;5116542;28;20043;-78
2021/12/26 13:55:32;;;;;;;11.52;5.55;;;;;;;;;;5116127;28;20048;-79
2021/12/26 13:58:04;;;;;;;10.90;5.18;;;;;;;;;;5116362;28;20072;-79
2021/12/26 14:00:31;;;;;;;9.95;5.63;;;;;;;;;;5097710;28;20557;-78
2021/12/26 14:03:01;;;;;;;9.88;5.35;;;;;;;;;;5116251;28;20440;-79
2021/12/26 14:05:27;;;;;;;10.47;5.83;;;;;;;;;;5098204;28;20055;-79
2021/12/26 14:08:01;;;;;;;12.10;5.25;;;;;;;;;;5116340;28;20056;-78
2021/12/26 14:10:27;;;;;;;10.07;4.80;;;;;;;;;;5116040;28;20039;-79
2021/12/26 14:12:55;;;;;;;11.23;5.60;;;;;;;;;;5116664;28;20078;-79
2021/12/26 14:15:33;;;;;;;11.05;4.95;;;;;;;;;;5097392;28;20054;-79
2021/12/26 14:18:01;;;;;;;9.75;4.97;;;;;;;;;;5096946;28;20047;-78
2021/12/26 14:20:46;;;;;;;10.40;5.28;;;;;;;;;;5097117;28;20077;-79
2021/12/26 14:23:15;;;;;;;10.18;5.00;;;;;;;;;;5097189;28;20058;-78
2021/12/26 14:25:41;;;;;;;9.32;4.85;;;;;;;;;;5097106;28;20047;-78
2021/12/26 14:28:08;;;;;;;8.32;4.57;;;;;;;;;;5114846;28;20058;-79
2021/12/26 14:30:37;;;;;;;9.27;5.18;;;;;;;;;;5114993;28;20043;-77
2021/12/26 14:33:03;;;;;;;9.30;4.93;;;;;;;;;;5096655;28;20050;-78
2021/12/26 14:35:31;;;;;;;9.38;5.10;;;;;;;;;;5096620;28;20396;-78
2021/12/26 14:38:11;;;;;;;9.98;5.10;;;;;;;;;;5096472;28;20128;-78
2021/12/26 14:40:48;;;;;;;8.25;4.20;;;;;;;;;;5114988;28;20047;-78
2021/12/26 14:43:15;;;;;;;9.13;4.75;;;;;;;;;;5114753;28;20399;-81
2021/12/26 14:45:48;;;;;;;10.52;5.22;;;;;;;;;;5114618;28;20495;-78
2021/12/26 14:48:30;;;;;;;12.27;5.78;;;;;;;;;;5096789;28;20122;-79
2021/12/26 14:50:56;;;;;;;8.93;5.15;;;;;;;;;;5096785;28;20046;-79